createdAt,value
2022-08-26T00:02:35.836Z,37.30
2022-08-26T00:05:19.416Z,23.90
2022-08-26T00:08:02.695Z,31.80
2022-08-26T00:10:46.292Z,29.30
2022-08-26T00:13:33.316Z,32.90
2022-08-26T00:16:28.599Z,26.20
2022-08-26T00:19:14.620Z,32.40
2022-08-26T00:22:00.714Z,29.50
2022-08-26T00:24:47.836Z,27.70
2022-08-26T00:27:34.199Z,30.00
2022-08-26T00:30:22.832Z,27.10
2022-08-26T00:33:07.501Z,26.70
2022-08-26T00:35:51.629Z,30.60
2022-08-26T00:38:37.818Z,27.40
2022-08-26T00:41:23.979Z,26.00
2022-08-26T00:44:10.487Z,32.20
2022-08-26T00:46:58.518Z,35.70
2022-08-26T00:49:44.531Z,31.20
2022-08-26T00:52:28.459Z,34.70
2022-08-26T00:55:20.377Z,35.90
2022-08-26T00:58:12.939Z,36.30
2022-08-26T01:00:58.331Z,32.20
2022-08-26T01:03:43.724Z,31.40
2022-08-26T01:06:27.468Z,24.70
2022-08-26T01:09:10.711Z,21.90
2022-08-26T01:11:57.703Z,31.80
2022-08-26T01:14:41.139Z,25.70
2022-08-26T01:17:29.989Z,20.60
2022-08-26T01:20:57.731Z,17.40
2022-08-26T01:23:50.305Z,28.00
2022-08-26T01:29:25.234Z,24.10
2022-08-26T01:32:10.977Z,28.70
2022-08-26T01:34:57.377Z,35.30
2022-08-26T01:38:02.426Z,22.10
2022-08-26T01:40:46.047Z,27.20
2022-08-26T01:43:34.171Z,30.90
2022-08-26T01:46:20.377Z,30.80
2022-08-26T01:49:06.850Z,24.00
2022-08-26T01:51:53.782Z,55.40
2022-08-26T01:54:37.274Z,25.90
2022-08-26T01:57:25.335Z,32.90
2022-08-26T02:00:13.434Z,32.80
2022-08-26T02:03:22.351Z,30.50
2022-08-26T02:06:25.510Z,25.90
2022-08-26T02:09:12.583Z,43.50
2022-08-26T02:12:02.032Z,31.20
2022-08-26T02:14:52.046Z,24.00
2022-08-26T02:17:46.081Z,35.00
2022-08-26T02:20:30.008Z,37.00
2022-08-26T02:23:24.439Z,32.70
2022-08-26T02:26:12.963Z,35.80
2022-08-26T02:29:13.413Z,34.80
2022-08-26T02:31:58.246Z,26.50
2022-08-26T02:34:50.682Z,34.80
2022-08-26T02:40:23.994Z,36.00
2022-08-26T02:43:12.689Z,40.70
2022-08-26T02:45:55.968Z,44.40
2022-08-26T02:48:39.355Z,40.90
2022-08-26T02:51:27.654Z,52.70
2022-08-26T02:54:12.691Z,44.00
2022-08-26T02:56:58.336Z,47.40
2022-08-26T02:59:41.541Z,46.40
2022-08-26T03:02:29.018Z,46.20
2022-08-26T03:05:15.988Z,43.00
2022-08-26T03:08:00.236Z,51.50
2022-08-26T03:10:46.551Z,48.00
2022-08-26T03:13:36.700Z,46.90
2022-08-26T03:16:22.108Z,43.00
2022-08-26T03:19:08.789Z,45.70
2022-08-26T03:21:58.014Z,46.20
2022-08-26T03:24:46.098Z,43.90
2022-08-26T03:27:32.752Z,42.30
2022-08-26T03:30:35.589Z,42.80
2022-08-26T03:33:19.212Z,42.50
2022-08-26T03:36:07.874Z,44.20
2022-08-26T03:38:52.209Z,42.50
2022-08-26T03:41:37.501Z,42.90
2022-08-26T03:44:26.117Z,40.80
2022-08-26T03:47:09.567Z,44.90
2022-08-26T03:49:52.713Z,42.30
2022-08-26T03:52:39.716Z,42.40
2022-08-26T03:55:32.041Z,40.70
2022-08-26T03:58:18.285Z,36.20
2022-08-26T04:01:04.237Z,36.20
2022-08-26T04:04:01.928Z,37.20
2022-08-26T04:06:52.638Z,34.70
2022-08-26T04:09:41.076Z,32.90
2022-08-26T04:12:25.647Z,37.80
2022-08-26T04:15:17.865Z,33.70
2022-08-26T04:18:06.959Z,33.70
2022-08-26T04:20:50.702Z,33.90
2022-08-26T04:23:47.592Z,34.40
2022-08-26T04:26:42.627Z,31.50
2022-08-26T04:29:27.214Z,33.10
2022-08-26T04:32:13.161Z,33.00
2022-08-26T04:34:59.205Z,31.90
2022-08-26T04:37:48.014Z,31.30
2022-08-26T04:40:31.166Z,32.90
2022-08-26T04:43:17.128Z,32.90
2022-08-26T04:46:05.797Z,34.70
2022-08-26T04:49:00.235Z,33.70
2022-08-26T04:51:52.926Z,32.10
2022-08-26T04:54:36.219Z,29.40
2022-08-26T04:57:23.774Z,28.60
2022-08-26T05:00:10.270Z,29.30
2022-08-26T05:02:56.352Z,32.40
2022-08-26T05:05:41.518Z,28.50
2022-08-26T05:08:24.679Z,28.40
2022-08-26T05:11:09.430Z,31.00
2022-08-26T05:13:57.317Z,27.40
2022-08-26T05:16:42.235Z,31.50
2022-08-26T05:19:27.940Z,31.30
2022-08-26T05:22:13.065Z,28.40
2022-08-26T05:24:56.340Z,27.60
2022-08-26T05:27:39.416Z,27.10
2022-08-26T05:30:23.258Z,28.30
2022-08-26T05:33:08.305Z,30.30
2022-08-26T05:35:52.142Z,23.70
2022-08-26T05:38:40.613Z,27.90
2022-08-26T05:41:36.068Z,25.00
2022-08-26T05:47:04.577Z,26.20
2022-08-26T05:49:51.323Z,23.50
2022-08-26T05:52:34.818Z,27.50
2022-08-26T05:55:18.815Z,21.80
2022-08-26T05:58:04.141Z,22.20
2022-08-26T06:01:07.725Z,21.90
2022-08-26T06:03:56.325Z,24.70
2022-08-26T06:06:42.922Z,24.90
2022-08-26T06:09:27.463Z,22.80
2022-08-26T06:12:11.429Z,23.70
2022-08-26T06:14:55.075Z,24.30
2022-08-26T06:17:39.500Z,25.60
2022-08-26T06:20:22.948Z,22.90
2022-08-26T06:23:24.528Z,24.60
2022-08-26T06:26:07.676Z,22.90
2022-08-26T06:28:55.609Z,24.40
2022-08-26T06:31:40.000Z,20.70
2022-08-26T06:34:29.667Z,23.60
2022-08-26T06:37:14.272Z,20.10
2022-08-26T06:39:57.588Z,20.50
2022-08-26T06:42:40.983Z,17.10
2022-08-26T06:45:24.368Z,23.30
2022-08-26T06:48:08.153Z,20.00
2022-08-26T06:51:13.347Z,19.90
2022-08-26T06:54:00.192Z,21.90
2022-08-26T06:56:43.962Z,22.00
2022-08-26T06:59:26.864Z,21.60
2022-08-26T07:02:09.808Z,21.40
2022-08-26T07:04:56.858Z,16.30
2022-08-26T07:07:39.992Z,18.40
2022-08-26T07:10:27.121Z,19.90
2022-08-26T07:13:12.459Z,17.90
2022-08-26T07:15:58.085Z,17.30
2022-08-26T07:18:48.440Z,19.40
2022-08-26T07:21:34.133Z,20.50
2022-08-26T07:24:17.001Z,16.20
2022-08-26T07:27:05.642Z,13.70
2022-08-26T07:29:48.849Z,24.20
2022-08-26T07:32:32.646Z,20.20
2022-08-26T07:35:16.110Z,16.50
2022-08-26T07:37:59.358Z,21.50
2022-08-26T07:40:42.603Z,17.60
2022-08-26T07:43:25.455Z,21.70
2022-08-26T07:46:09.782Z,22.30
2022-08-26T07:48:55.300Z,18.90
2022-08-26T07:51:39.803Z,15.80
2022-08-26T07:54:24.639Z,19.30
2022-08-26T07:57:10.261Z,22.00
2022-08-26T07:59:55.232Z,19.90
2022-08-26T08:02:38.415Z,16.20
2022-08-26T08:05:23.478Z,19.10
2022-08-26T08:08:26.329Z,16.00
2022-08-26T08:11:14.298Z,19.60
2022-08-26T08:14:00.737Z,18.00
2022-08-26T08:16:46.853Z,16.80
2022-08-26T08:19:38.979Z,12.30
2022-08-26T08:22:24.058Z,16.30
2022-08-26T08:25:08.052Z,15.00
2022-08-26T08:27:54.415Z,17.40
2022-08-26T08:30:39.812Z,15.10
2022-08-26T08:33:22.929Z,15.30
2022-08-26T08:36:07.393Z,17.80
2022-08-26T08:38:52.804Z,17.40
2022-08-26T08:41:54.857Z,18.80
2022-08-26T08:47:24.198Z,16.70
2022-08-26T08:50:19.708Z,16.10
2022-08-26T08:53:26.959Z,18.90
2022-08-26T08:56:31.728Z,20.00
2022-08-26T08:59:53.357Z,12.00
2022-08-26T09:02:47.163Z,19.00
2022-08-26T09:05:40.237Z,16.00
2022-08-26T09:08:29.326Z,13.50
2022-08-26T09:11:13.579Z,15.00
2022-08-26T09:13:57.740Z,15.20
2022-08-26T09:17:00.185Z,13.80
2022-08-26T09:19:54.347Z,12.40
2022-08-26T09:25:21.197Z,15.70
2022-08-26T09:28:15.044Z,14.00
2022-08-26T09:31:22.458Z,15.30
2022-08-26T09:34:23.274Z,10.90
2022-08-26T09:37:07.777Z,15.10
2022-08-26T09:39:52.718Z,11.40
2022-08-26T09:42:35.607Z,18.80
2022-08-26T09:45:28.668Z,18.50
2022-08-26T09:48:35.467Z,14.10
2022-08-26T09:51:31.564Z,15.30
2022-08-26T09:54:30.497Z,19.30
2022-08-26T09:57:27.759Z,14.50
2022-08-26T10:00:32.246Z,13.10
2022-08-26T10:03:31.484Z,13.30
2022-08-26T10:06:21.184Z,8.60
2022-08-26T10:09:08.857Z,15.40
2022-08-26T10:11:55.500Z,14.90
2022-08-26T10:17:41.999Z,10.40
2022-08-26T10:20:35.729Z,7.80
2022-08-26T10:23:27.607Z,18.30
2022-08-26T10:26:27.535Z,14.60
2022-08-26T10:29:20.572Z,10.90
2022-08-26T10:32:13.890Z,9.10
2022-08-26T10:34:57.280Z,10.40
2022-08-26T10:37:48.807Z,8.60
2022-08-26T10:43:41.107Z,8.10
2022-08-26T10:46:34.843Z,14.10
2022-08-26T10:49:20.468Z,13.40
2022-08-26T10:52:42.450Z,15.20
2022-08-26T10:55:34.849Z,14.80
2022-08-26T10:58:32.231Z,15.20
2022-08-26T11:01:43.123Z,8.10
2022-08-26T11:04:49.796Z,12.70
2022-08-26T11:07:39.300Z,14.90
2022-08-26T11:10:23.008Z,16.20
2022-08-26T11:13:07.365Z,17.20
2022-08-26T11:15:53.581Z,11.50
2022-08-26T11:18:40.094Z,17.30
2022-08-26T11:22:05.213Z,10.30
2022-08-26T11:24:57.310Z,10.80
2022-08-26T11:27:41.674Z,11.30
2022-08-26T11:30:25.152Z,15.80
2022-08-26T11:33:30.947Z,15.30
2022-08-26T11:36:52.330Z,13.00
2022-08-26T11:39:54.744Z,14.00
2022-08-26T11:42:51.983Z,14.30
2022-08-26T11:45:39.450Z,12.70
2022-08-26T11:48:30.779Z,13.30
2022-08-26T11:51:23.549Z,14.90
2022-08-26T11:54:13.684Z,11.30
2022-08-26T11:56:59.781Z,14.80
2022-08-26T11:59:45.087Z,9.30
2022-08-26T12:02:29.224Z,15.30
2022-08-26T12:05:17.326Z,17.50
2022-08-26T12:08:12.380Z,9.70
2022-08-26T12:11:09.253Z,11.80
2022-08-26T12:14:07.202Z,14.60
2022-08-26T12:16:50.818Z,12.60
2022-08-26T12:19:34.539Z,14.50
2022-08-26T12:22:27.603Z,15.50
2022-08-26T12:25:35.926Z,12.10
2022-08-26T12:28:21.703Z,10.40
2022-08-26T12:31:07.615Z,8.90
2022-08-26T12:33:51.573Z,18.10
2022-08-26T12:36:47.129Z,14.30
2022-08-26T12:39:33.490Z,17.90
2022-08-26T12:42:19.543Z,8.70
2022-08-26T12:45:07.542Z,6.90
2022-08-26T12:47:56.672Z,11.10
2022-08-26T12:50:47.251Z,13.30
2022-08-26T12:53:33.626Z,12.80
2022-08-26T12:56:32.579Z,11.00
2022-08-26T12:59:21.338Z,8.90
2022-08-26T13:02:04.482Z,10.80
2022-08-26T13:04:47.473Z,11.60
2022-08-26T13:07:30.560Z,10.10
2022-08-26T13:10:35.376Z,11.50
2022-08-26T13:13:18.229Z,11.10
2022-08-26T13:16:01.146Z,10.10
2022-08-26T13:18:44.070Z,13.80
2022-08-26T13:21:28.309Z,11.10
2022-08-26T13:24:19.018Z,12.30
2022-08-26T13:27:03.350Z,12.10
2022-08-26T13:29:47.160Z,9.60
2022-08-26T13:32:30.097Z,10.20
2022-08-26T13:35:13.006Z,11.40
2022-08-26T13:37:55.920Z,16.00
2022-08-26T13:40:40.900Z,7.70
2022-08-26T13:43:23.704Z,10.70
2022-08-26T13:46:06.635Z,11.10
2022-08-26T13:48:49.553Z,15.40
2022-08-26T13:51:32.925Z,13.40
2022-08-26T13:54:15.820Z,11.20
2022-08-26T13:56:59.036Z,12.70
2022-08-26T13:59:41.835Z,13.00
2022-08-26T14:02:25.534Z,10.90
2022-08-26T14:05:08.756Z,15.10
2022-08-26T14:07:51.598Z,10.20
2022-08-26T14:10:34.503Z,9.60
2022-08-26T14:13:18.589Z,11.20
2022-08-26T14:16:04.873Z,11.10
2022-08-26T14:18:50.773Z,13.30
2022-08-26T14:21:37.314Z,22.50
2022-08-26T14:24:20.546Z,14.80
2022-08-26T14:27:03.444Z,12.40
2022-08-26T14:29:46.408Z,12.30
2022-08-26T14:32:30.003Z,13.00
2022-08-26T14:35:17.286Z,13.50
2022-08-26T14:38:02.694Z,11.80
2022-08-26T14:40:45.891Z,12.50
2022-08-26T14:43:28.793Z,17.20
2022-08-26T14:46:13.985Z,9.80
2022-08-26T14:49:01.426Z,13.10
2022-08-26T14:51:46.044Z,13.20
2022-08-26T14:54:29.578Z,14.80
2022-08-26T14:57:15.276Z,14.30
2022-08-26T15:00:00.162Z,10.60
2022-08-26T15:02:44.624Z,12.70
2022-08-26T15:05:27.877Z,17.70
2022-08-26T15:08:10.967Z,9.40
2022-08-26T15:10:54.514Z,13.90
2022-08-26T15:13:37.555Z,12.60
2022-08-26T15:16:21.217Z,12.40
2022-08-26T15:19:05.407Z,12.00
2022-08-26T15:21:49.713Z,14.40
2022-08-26T15:24:33.013Z,13.30
2022-08-26T15:27:16.498Z,8.30
2022-08-26T15:30:02.626Z,14.90
2022-08-26T15:32:45.566Z,17.30
2022-08-26T15:35:28.468Z,8.10
2022-08-26T15:38:15.990Z,14.50
2022-08-26T15:41:03.215Z,11.70
2022-08-26T15:43:46.136Z,11.90
2022-08-26T15:46:29.082Z,17.60
2022-08-26T15:49:18.549Z,10.40
2022-08-26T15:52:05.155Z,15.80
2022-08-26T15:54:48.672Z,13.10
2022-08-26T15:57:33.574Z,10.90
2022-08-26T16:00:17.360Z,13.60
2022-08-26T16:03:00.388Z,18.80
2022-08-26T16:05:44.008Z,13.40
2022-08-26T16:08:27.354Z,18.20
2022-08-26T16:11:14.390Z,12.20
2022-08-26T16:13:57.724Z,14.20
2022-08-26T16:16:41.362Z,16.80
2022-08-26T16:19:26.941Z,12.70
2022-08-26T16:22:09.808Z,12.90
2022-08-26T16:24:56.721Z,11.10
2022-08-26T16:27:39.466Z,15.00
2022-08-26T16:30:23.319Z,14.10
2022-08-26T16:33:06.128Z,13.30
2022-08-26T16:35:52.147Z,10.60
2022-08-26T16:38:36.408Z,15.80
2022-08-26T16:41:19.730Z,17.70
2022-08-26T16:44:04.293Z,11.90
2022-08-26T16:46:47.111Z,16.70
2022-08-26T16:49:30.141Z,19.40
2022-08-26T16:52:14.117Z,16.80
2022-08-26T16:54:57.476Z,13.40
2022-08-26T16:57:44.960Z,11.30
2022-08-26T17:00:30.713Z,16.90
2022-08-26T17:03:13.778Z,14.20
2022-08-26T17:05:57.840Z,14.50
2022-08-26T17:08:41.857Z,12.20
2022-08-26T17:11:24.711Z,16.20
2022-08-26T17:14:07.859Z,18.50
2022-08-26T17:16:51.426Z,9.80
2022-08-26T17:19:39.061Z,15.30
2022-08-26T17:22:23.880Z,15.00
2022-08-26T17:25:12.344Z,14.20
2022-08-26T17:30:40.458Z,10.80
2022-08-26T17:33:24.656Z,12.80
2022-08-26T17:36:09.124Z,15.10
2022-08-26T17:38:59.949Z,10.70
2022-08-26T17:41:42.847Z,14.50
2022-08-26T17:44:26.079Z,13.60
2022-08-26T17:47:09.044Z,18.60
2022-08-26T17:49:52.084Z,8.30
2022-08-26T17:52:36.462Z,9.80
2022-08-26T17:55:19.492Z,13.30
2022-08-26T17:58:03.873Z,14.10
2022-08-26T18:00:52.893Z,15.00
2022-08-26T18:03:35.967Z,11.90
2022-08-26T18:06:20.851Z,22.50
2022-08-26T18:09:03.917Z,22.20
2022-08-26T18:11:47.039Z,22.20
2022-08-26T18:14:31.678Z,21.00
2022-08-26T18:17:19.434Z,22.40
2022-08-26T18:20:02.676Z,21.10
2022-08-26T18:22:47.810Z,17.10
2022-08-26T18:25:31.158Z,21.50
2022-08-26T18:28:14.631Z,11.80
2022-08-26T18:30:57.717Z,17.30
2022-08-26T18:33:43.920Z,16.20
2022-08-26T18:36:30.443Z,13.20
2022-08-26T18:39:14.841Z,15.20
2022-08-26T18:41:58.046Z,18.70
2022-08-26T18:44:40.951Z,16.30
2022-08-26T18:47:24.095Z,17.00
2022-08-26T18:50:08.347Z,12.30
2022-08-26T18:52:51.457Z,14.10
2022-08-26T18:55:34.531Z,12.80
2022-08-26T18:58:17.586Z,15.90
2022-08-26T19:01:00.785Z,14.40
2022-08-26T19:03:44.326Z,10.00
2022-08-26T19:06:33.007Z,14.10
2022-08-26T19:09:18.018Z,13.00
2022-08-26T19:12:02.122Z,14.70
2022-08-26T19:14:45.093Z,20.20
2022-08-26T19:17:29.190Z,18.50
2022-08-26T19:20:12.819Z,16.10
2022-08-26T19:22:59.676Z,17.20
2022-08-26T19:25:51.771Z,12.60
2022-08-26T19:28:39.664Z,17.70
2022-08-26T19:31:23.868Z,16.40
2022-08-26T19:34:07.120Z,15.20
2022-08-26T19:36:54.249Z,14.30
2022-08-26T19:39:37.592Z,15.20
2022-08-26T19:42:20.799Z,14.40
2022-08-26T19:45:24.388Z,18.30
2022-08-26T19:48:08.671Z,11.30
2022-08-26T19:50:54.946Z,11.20
2022-08-26T19:53:38.574Z,10.40
2022-08-26T19:56:28.190Z,16.30
2022-08-26T19:59:11.404Z,11.90
2022-08-26T20:02:01.391Z,20.00
2022-08-26T20:04:53.717Z,20.30
2022-08-26T20:07:37.138Z,26.30
2022-08-26T20:10:23.579Z,20.80
2022-08-26T20:13:16.761Z,21.70
2022-08-26T20:16:00.187Z,18.10
2022-08-26T20:19:03.628Z,18.70
2022-08-26T20:22:07.145Z,19.10
2022-08-26T20:24:53.369Z,15.70
2022-08-26T20:27:38.409Z,10.90
2022-08-26T20:30:23.921Z,15.00
2022-08-26T20:33:10.366Z,17.50
2022-08-26T20:35:53.797Z,13.20
2022-08-26T20:38:42.292Z,11.60
2022-08-26T20:41:28.379Z,15.80
2022-08-26T20:44:14.004Z,12.20
2022-08-26T20:46:59.304Z,15.20
2022-08-26T20:49:45.531Z,13.20
2022-08-26T20:52:31.896Z,17.30
2022-08-26T20:55:15.575Z,13.80
2022-08-26T20:57:58.558Z,13.70
2022-08-26T21:00:51.924Z,14.60
2022-08-26T21:03:40.985Z,11.80
2022-08-26T21:06:25.408Z,13.10
2022-08-26T21:09:11.824Z,12.90
2022-08-26T21:11:55.421Z,22.70
2022-08-26T21:14:38.506Z,12.10
2022-08-26T21:17:22.936Z,18.10
2022-08-26T21:20:09.555Z,14.40
2022-08-26T21:22:56.044Z,15.10
2022-08-26T21:25:40.725Z,19.20
2022-08-26T21:28:23.871Z,12.00
2022-08-26T21:31:09.170Z,12.20
2022-08-26T21:33:52.543Z,19.40
2022-08-26T21:36:36.272Z,14.20
2022-08-26T21:39:19.362Z,21.50
2022-08-26T21:42:04.797Z,16.90
2022-08-26T21:44:52.662Z,17.50
2022-08-26T21:47:36.424Z,20.50
2022-08-26T21:50:22.520Z,16.40
2022-08-26T21:53:05.753Z,16.60
2022-08-26T21:55:51.059Z,12.10
2022-08-26T21:58:35.074Z,22.90
2022-08-26T22:01:21.692Z,13.90
2022-08-26T22:04:07.458Z,15.00
2022-08-26T22:06:53.638Z,12.90
2022-08-26T22:09:38.829Z,16.60
2022-08-26T22:12:22.447Z,18.80
2022-08-26T22:15:06.245Z,14.80
2022-08-26T22:17:54.840Z,13.50
2022-08-26T22:21:02.973Z,14.90
2022-08-26T22:23:47.945Z,19.30
2022-08-26T22:26:35.052Z,12.30
2022-08-26T22:29:18.947Z,14.60
2022-08-26T22:32:13.669Z,21.40
2022-08-26T22:34:56.974Z,12.30
2022-08-26T22:37:43.895Z,15.60
2022-08-26T22:40:37.676Z,17.20
2022-08-26T22:43:25.150Z,16.50
2022-08-26T22:46:15.408Z,16.50
2022-08-26T22:49:04.889Z,13.30
2022-08-26T22:52:09.158Z,18.10
2022-08-26T22:54:54.977Z,15.60
2022-08-26T22:57:40.302Z,14.60
2022-08-26T23:00:32.291Z,24.20
2022-08-26T23:03:17.712Z,16.90
2022-08-26T23:06:21.362Z,15.60
2022-08-26T23:09:08.266Z,18.00
2022-08-26T23:12:11.502Z,19.30
2022-08-26T23:15:09.122Z,14.60
2022-08-26T23:17:55.912Z,15.40
2022-08-26T23:20:51.217Z,16.80
2022-08-26T23:23:38.407Z,14.00
2022-08-26T23:26:21.646Z,16.20
2022-08-26T23:29:08.944Z,15.00
2022-08-26T23:31:55.812Z,14.30
2022-08-26T23:34:59.805Z,19.00
2022-08-26T23:37:51.259Z,17.60
2022-08-26T23:40:35.835Z,13.30
2022-08-26T23:43:39.061Z,15.10
2022-08-26T23:46:24.337Z,17.80
2022-08-26T23:49:14.882Z,15.00
2022-08-26T23:52:27.336Z,16.90
2022-08-26T23:55:14.484Z,19.00
2022-08-26T23:58:06.473Z,18.40
